Time;durP1;ratioP1;P1;durP2;ratioP2;P2;SDS_P1;SDS_P2;PMS_P1;PMS_P2;Temp;Humidity;BMP_temperature;BMP_pressure;BME280_temperature;BME280_humidity;BME280_pressure;Samples;Min_cycle;Max_cycle;Signal;HPM_P1;HPM_P2
2023/05/13 00:01:17;;;;;;;;;;;;;;;13.15;86.26;101176.38;4914441;28;20637;-81
2023/05/13 00:03:46;;;;;;;;;;;;;;;13.59;86.97;101248.88;4895009;28;19921;-82
2023/05/13 00:06:14;;;;;;;;;;;;;;;13.60;86.93;101255.91;4914320;28;20070;-80
2023/05/13 00:08:44;;;;;;;;;;;;;;;13.56;87.97;101248.31;4902971;28;20307;-82
2023/05/13 00:11:19;;;;;;;;;;;;;;;13.38;87.13;101200.16;4894310;28;19925;-82
2023/05/13 00:13:53;;;;;;;;;;;;;;;13.72;86.94;101251.25;4902599;28;19921;-79
2023/05/13 00:16:35;;;;;;;;;;;;;;;13.74;87.10;101253.78;4910024;28;20027;-81
2023/05/13 00:19:04;;;;;;;;;;;;;;;13.72;87.09;101250.44;4909373;28;19922;-80
2023/05/13 00:21:32;;;;;;;;;;;;;;;13.67;87.71;101253.53;4902579;28;20165;-81
2023/05/13 00:24:02;;;;;;;;;;;;;;;13.71;87.03;101246.91;4904781;28;20012;-81
2023/05/13 00:26:33;;;;;;;;;;;;;;;13.79;86.04;101255.06;4909589;28;19976;-79
2023/05/13 00:29:03;;;;;;;;;;;;;;;13.77;86.50;101253.50;4903797;28;20424;-79
2023/05/13 00:31:34;;;;;;;;;;;;;;;13.73;86.75;101252.94;4905654;28;20070;-81
2023/05/13 00:34:05;;;;;;;;;;;;;;;13.82;85.83;101249.44;4906711;28;20312;-81
2023/05/13 00:36:35;;;;;;;;;;;;;;;13.66;87.30;101254.47;4910652;28;20058;-79
2023/05/13 00:39:05;;;;;;;;;;;;;;;13.38;87.36;101211.66;4895206;28;19921;-81
2023/05/13 00:41:37;;;;;;;;;;;;;;;13.65;88.01;101260.81;4913044;28;19933;-81
2023/05/13 00:44:07;;;;;;;;;;;;;;;13.65;88.04;101263.47;4908256;28;19922;-81
2023/05/13 00:46:45;;;;;;;;;;;;;;;13.32;89.27;101212.22;4915783;28;20750;-80
2023/05/13 00:49:16;;;;;;;;;;;;;;;13.29;89.52;101209.00;4910083;28;20200;-81
2023/05/13 00:51:43;;;;;;;;;;;;;;;13.73;88.35;101255.59;4894439;28;19952;-81
2023/05/13 00:54:16;;;;;;;;;;;;;;;13.70;88.96;101260.41;4889235;28;20363;-81
2023/05/13 00:57:02;;;;;;;;;;;;;;;13.80;88.05;101256.72;4921331;28;20399;-82
2023/05/13 00:59:29;;;;;;;;;;;;;;;13.75;88.57;101258.97;4920348;28;20122;-81
2023/05/13 01:02:33;;;;;;;;;;;;;;;13.79;87.64;101256.88;4908067;28;20361;-81
2023/05/13 01:05:11;;;;;;;;;;;;;;;13.45;88.23;101212.78;4827060;29;19926;-82
2023/05/13 01:07:44;;;;;;;;;;;;;;;13.74;87.81;101256.44;4890088;28;20068;-81
2023/05/13 01:10:18;;;;;;;;;;;;;;;13.40;87.77;101207.03;4900052;28;19922;-82
2023/05/13 01:12:55;;;;;;;;;;;;;;;13.76;87.95;101257.16;4899881;28;19929;-82
2023/05/13 01:15:24;;;;;;;;;;;;;;;13.76;87.52;101260.69;4899056;28;20371;-81
2023/05/13 01:17:57;;;;;;;;;;;;;;;13.76;88.53;101258.00;4899720;28;19922;-81
2023/05/13 01:20:28;;;;;;;;;;;;;;;13.74;88.65;101256.44;4903920;28;20261;-81
2023/05/13 01:23:00;;;;;;;;;;;;;;;13.77;88.98;101267.69;4901555;28;19921;-80
2023/05/13 01:25:35;;;;;;;;;;;;;;;13.75;89.65;101255.47;4898907;28;20561;-79
2023/05/13 01:28:01;;;;;;;;;;;;;;;13.82;88.58;101256.59;4900331;28;20089;-80
2023/05/13 01:30:29;;;;;;;;;;;;;;;13.94;87.41;101254.63;4925415;28;20131;-80
2023/05/13 01:32:56;;;;;;;;;;;;;;;13.79;88.22;101255.06;4927168;28;19926;-79
2023/05/13 01:35:23;;;;;;;;;;;;;;;13.75;88.66;101263.47;4920235;28;19934;-79
2023/05/13 01:37:50;;;;;;;;;;;;;;;13.71;88.60;101262.91;4917953;28;20070;-80
2023/05/13 01:40:17;;;;;;;;;;;;;;;13.76;88.56;101260.69;4895983;28;20343;-79
2023/05/13 01:42:58;;;;;;;;;;;;;;;13.76;87.90;101266.03;4929847;28;19948;-79
2023/05/13 01:45:26;;;;;;;;;;;;;;;13.67;88.24;101262.34;4916593;28;19922;-81
2023/05/13 01:47:53;;;;;;;;;;;;;;;13.71;88.11;101259.41;4907814;28;20158;-82
2023/05/13 01:50:25;;;;;;;;;;;;;;;13.70;88.63;101265.72;4920796;28;20192;-82
2023/05/13 01:52:56;;;;;;;;;;;;;;;13.72;88.48;101261.94;4923939;28;20204;-81
2023/05/13 01:55:22;;;;;;;;;;;;;;;13.72;88.11;101259.28;4892921;28;20421;-81
2023/05/13 01:57:54;;;;;;;;;;;;;;;13.74;87.89;101267.97;4905785;28;19928;-83
2023/05/13 02:00:20;;;;;;;;;;;;;;;13.72;88.11;101269.09;4899738;28;19921;-81
2023/05/13 02:02:48;;;;;;;;;;;;;;;13.81;87.48;101263.78;4922311;28;20311;-79
2023/05/13 02:05:18;;;;;;;;;;;;;;;13.69;87.69;101267.56;4905706;28;20317;-82
2023/05/13 02:07:48;;;;;;;;;;;;;;;13.71;87.84;101262.91;4914794;28;19956;-81
2023/05/13 02:10:22;;;;;;;;;;;;;;;13.66;88.19;101260.66;4975338;28;20315;-83
2023/05/13 02:12:51;;;;;;;;;;;;;;;13.64;88.56;101256.44;4960378;28;20024;-80
2023/05/13 02:15:20;;;;;;;;;;;;;;;13.68;88.27;101249.84;4965677;28;20016;-82
2023/05/13 02:17:47;;;;;;;;;;;;;;;13.73;87.49;101255.59;4959949;28;19947;-82
2023/05/13 02:20:13;;;;;;;;;;;;;;;13.71;87.65;101254.91;4967527;28;19929;-81
2023/05/13 02:22:40;;;;;;;;;;;;;;;13.71;87.88;101262.91;4950306;28;20079;-81
2023/05/13 02:25:07;;;;;;;;;;;;;;;13.71;88.10;101262.91;4916409;28;19925;-80
2023/05/13 02:27:33;;;;;;;;;;;;;;;13.66;88.54;101265.16;4925462;28;20287;-80
2023/05/13 02:30:00;;;;;;;;;;;;;;;13.72;88.39;101267.28;4938630;28;19921;-82
2023/05/13 02:32:26;;;;;;;;;;;;;;;13.65;88.41;101263.47;4947143;28;19929;-81
2023/05/13 02:34:53;;;;;;;;;;;;;;;13.69;88.36;101259.56;4943540;28;19933;-80
2023/05/13 02:37:20;;;;;;;;;;;;;;;13.06;88.84;101166.59;4938142;28;19992;-82
2023/05/13 02:39:46;;;;;;;;;;;;;;;13.64;89.30;101265.31;4943061;28;19933;-80
2023/05/13 02:42:13;;;;;;;;;;;;;;;13.66;88.99;101259.81;4955113;28;19929;-81
2023/05/13 02:44:40;;;;;;;;;;;;;;;13.64;88.85;101261.78;4961109;28;19922;-80
2023/05/13 02:47:06;;;;;;;;;;;;;;;13.70;88.05;101255.06;4960849;28;19940;-82
2023/05/13 02:49:33;;;;;;;;;;;;;;;13.71;87.85;101251.41;4956313;28;19925;-81
2023/05/13 02:51:59;;;;;;;;;;;;;;;13.68;87.70;101257.84;4948265;28;19926;-80
2023/05/13 02:54:26;;;;;;;;;;;;;;;13.71;87.58;101257.56;4929490;28;19929;-81
2023/05/13 02:56:52;;;;;;;;;;;;;;;13.69;87.96;101264.91;4944328;28;19925;-81
2023/05/13 02:59:19;;;;;;;;;;;;;;;13.77;87.27;101257.03;4945695;28;19963;-79
2023/05/13 03:01:46;;;;;;;;;;;;;;;13.78;87.58;101261.34;4939867;28;20108;-81
2023/05/13 03:04:15;;;;;;;;;;;;;;;13.77;88.03;101267.69;4941142;28;20387;-81
2023/05/13 03:06:42;;;;;;;;;;;;;;;13.80;87.29;101275.41;4964516;28;19922;-80
2023/05/13 03:09:09;;;;;;;;;;;;;;;13.80;87.54;101270.06;4943192;28;19937;-82
2023/05/13 03:11:35;;;;;;;;;;;;;;;13.79;87.51;101270.22;4959716;28;19961;-82
2023/05/13 03:14:02;;;;;;;;;;;;;;;13.82;87.53;101275.28;4952899;28;20115;-80
2023/05/13 03:16:28;;;;;;;;;;;;;;;13.86;87.56;101274.03;4942177;28;19984;-81
2023/05/13 03:18:55;;;;;;;;;;;;;;;13.86;86.38;101272.19;4953008;28;20869;-81
2023/05/13 03:21:21;;;;;;;;;;;;;;;14.04;85.35;101274.13;4959374;28;20158;-81
2023/05/13 03:23:48;;;;;;;;;;;;;;;13.97;85.56;101279.19;4954731;28;19925;-82
2023/05/13 03:26:15;;;;;;;;;;;;;;;13.88;86.19;101286.25;4937011;28;20005;-81
2023/05/13 03:28:43;;;;;;;;;;;;;;;13.86;86.99;101287.38;4950533;28;19921;-82
2023/05/13 03:31:11;;;;;;;;;;;;;;;13.86;86.38;101304.22;4938002;28;19949;-80
2023/05/13 03:33:37;;;;;;;;;;;;;;;13.93;86.57;101295.63;4960683;28;20098;-81
2023/05/13 03:36:05;;;;;;;;;;;;;;;13.89;86.61;101303.94;4938646;28;19922;-81
2023/05/13 03:38:32;;;;;;;;;;;;;;;13.94;86.39;101300.00;4955472;28;19922;-80
2023/05/13 03:40:59;;;;;;;;;;;;;;;13.60;86.26;101247.06;4952173;28;19926;-81
2023/05/13 03:43:25;;;;;;;;;;;;;;;13.92;85.85;101304.63;4940538;28;20002;-82
2023/05/13 03:45:55;;;;;;;;;;;;;;;13.89;86.06;101308.44;4899901;28;20296;-81
2023/05/13 03:48:22;;;;;;;;;;;;;;;13.96;85.86;101303.38;4914720;28;19925;-82
2023/05/13 03:50:49;;;;;;;;;;;;;;;14.02;85.30;101308.13;4910108;28;19925;-82
2023/05/13 03:53:16;;;;;;;;;;;;;;;14.01;85.10;101312.63;4952712;28;19929;-82
2023/05/13 03:55:42;;;;;;;;;;;;;;;14.04;84.79;101311.50;4942200;28;19928;-82
2023/05/13 03:58:11;;;;;;;;;;;;;;;14.11;84.15;101321.47;4944134;28;20250;-81
2023/05/13 04:00:37;;;;;;;;;;;;;;;14.13;84.23;101321.34;4938917;28;20480;-82
2023/05/13 04:03:04;;;;;;;;;;;;;;;13.82;84.65;101283.28;4957814;28;19922;-82
2023/05/13 04:05:34;;;;;;;;;;;;;;;13.68;85.01;101274.69;4927920;28;20387;-82
2023/05/13 04:08:05;;;;;;;;;;;;;;;14.04;84.84;101311.50;4962852;28;20344;-81
2023/05/13 04:10:32;;;;;;;;;;;;;;;14.02;84.44;101324.16;4941242;28;19926;-82
2023/05/13 04:12:59;;;;;;;;;;;;;;;13.99;84.71;101319.09;4955772;28;19945;-81
2023/05/13 04:15:25;;;;;;;;;;;;;;;14.01;84.41;101323.31;4958291;28;19921;-81
2023/05/13 04:17:52;;;;;;;;;;;;;;;14.04;84.46;101322.19;4958102;28;19921;-82
2023/05/13 04:20:22;;;;;;;;;;;;;;;14.11;83.94;101331.31;4960288;28;20065;-80
2023/05/13 04:22:49;;;;;;;;;;;;;;;14.10;83.88;101333.16;4959200;28;20057;-81
2023/05/13 04:25:16;;;;;;;;;;;;;;;14.16;83.58;101326.41;4962524;28;19922;-81
2023/05/13 04:27:49;;;;;;;;;;;;;;;14.17;82.71;101336.06;4935397;28;19972;-79
2023/05/13 04:30:15;;;;;;;;;;;;;;;14.10;83.16;101337.63;4964580;28;19926;-80
2023/05/13 04:32:42;;;;;;;;;;;;;;;14.07;83.22;101335.25;4946213;28;19934;-79
2023/05/13 04:35:09;;;;;;;;;;;;;;;14.09;84.02;101341.28;4943792;28;20426;-82
2023/05/13 04:37:37;;;;;;;;;;;;;;;14.05;84.39;101340.75;4934054;28;19973;-81
2023/05/13 04:40:14;;;;;;;;;;;;;;;14.06;83.40;101341.59;4960963;28;19921;-78
2023/05/13 04:42:41;;;;;;;;;;;;;;;13.72;83.71;101290.47;4953653;28;19921;-81
2023/05/13 04:45:08;;;;;;;;;;;;;;;14.06;83.67;101342.41;4940306;28;19945;-81
2023/05/13 04:47:36;;;;;;;;;;;;;;;13.75;83.25;101291.00;4937438;28;19929;-81
2023/05/13 04:50:05;;;;;;;;;;;;;;;14.04;83.93;101341.72;4945945;28;19925;-81
2023/05/13 04:52:32;;;;;;;;;;;;;;;14.04;83.65;101339.03;4927982;28;19944;-80
2023/05/13 04:54:59;;;;;;;;;;;;;;;14.05;83.48;101339.88;4953848;28;19930;-81
2023/05/13 04:57:30;;;;;;;;;;;;;;;14.10;82.95;101334.97;4953178;28;19922;-81
2023/05/13 05:00:00;;;;;;;;;;;;;;;14.10;82.23;101337.63;4939364;28;19926;-81
2023/05/13 05:02:30;;;;;;;;;;;;;;;13.78;83.20;101281.88;4938702;28;19922;-82
2023/05/13 05:04:57;;;;;;;;;;;;;;;14.06;83.29;101334.41;4951111;28;19926;-81
2023/05/13 05:07:25;;;;;;;;;;;;;;;14.09;82.63;101341.28;4947213;28;19929;-81
2023/05/13 05:09:55;;;;;;;;;;;;;;;14.11;82.07;101334.81;4948506;28;19929;-81
2023/05/13 05:12:27;;;;;;;;;;;;;;;14.10;83.02;101338.50;4964043;28;19926;-81
2023/05/13 05:14:53;;;;;;;;;;;;;;;14.10;83.13;101333.16;4938930;28;19976;-80
2023/05/13 05:17:22;;;;;;;;;;;;;;;13.83;83.06;101277.78;4960800;28;20178;-81
2023/05/13 05:19:52;;;;;;;;;;;;;;;14.20;81.81;101338.47;4964679;28;20020;-82
2023/05/13 05:22:18;;;;;;;;;;;;;;;14.29;81.17;101337.59;4967346;28;20020;-81
2023/05/13 05:24:47;;;;;;;;;;;;;;;14.29;81.20;101337.59;4967131;28;19928;-81
2023/05/13 05:27:18;;;;;;;;;;;;;;;14.29;80.94;101336.78;4948424;28;19997;-81
2023/05/13 05:29:49;;;;;;;;;;;;;;;14.29;80.88;101340.28;4949274;28;19930;-81
2023/05/13 05:32:15;;;;;;;;;;;;;;;14.32;81.73;101336.47;4943684;28;20388;-82
2023/05/13 05:34:42;;;;;;;;;;;;;;;14.36;81.76;101337.06;4960644;28;19991;-81
2023/05/13 05:37:10;;;;;;;;;;;;;;;14.39;80.59;101342.09;4952565;28;19921;-81
2023/05/13 05:39:37;;;;;;;;;;;;;;;14.40;81.24;101338.47;4963586;28;19972;-80
2023/05/13 05:42:04;;;;;;;;;;;;;;;14.45;81.71;101352.22;4967325;28;19935;-80
2023/05/13 05:44:31;;;;;;;;;;;;;;;14.51;79.81;101346.28;4958996;28;19925;-82
2023/05/13 05:46:57;;;;;;;;;;;;;;;14.51;80.45;101348.97;4959433;28;19947;-82
2023/05/13 05:49:24;;;;;;;;;;;;;;;14.47;80.29;101347.59;4953409;28;19976;-82
2023/05/13 05:51:52;;;;;;;;;;;;;;;14.52;80.68;101348.81;4922008;28;20383;-82
2023/05/13 05:54:19;;;;;;;;;;;;;;;14.58;81.21;101360.78;4939026;28;20347;-80
2023/05/13 05:56:47;;;;;;;;;;;;;;;14.33;80.85;101312.31;4944322;28;19929;-80
2023/05/13 05:59:17;;;;;;;;;;;;;;;14.66;80.39;101365.41;4945828;28;19926;-82
2023/05/13 06:01:46;;;;;;;;;;;;;;;14.42;79.05;101320.47;4956096;28;19922;-82
2023/05/13 06:04:12;;;;;;;;;;;;;;;14.74;79.03;101365.53;4966275;28;19983;-81
2023/05/13 06:06:39;;;;;;;;;;;;;;;14.81;77.72;101368.50;4962116;28;19952;-82
2023/05/13 06:09:06;;;;;;;;;;;;;;;14.83;77.99;101367.34;4951657;28;20082;-82
2023/05/13 06:11:33;;;;;;;;;;;;;;;14.90;77.99;101372.94;4959553;28;19933;-81
2023/05/13 06:14:02;;;;;;;;;;;;;;;14.89;77.51;101374.78;4962852;28;19933;-81
2023/05/13 06:16:29;;;;;;;;;;;;;;;15.03;76.58;101378.81;4955726;28;19922;-80
2023/05/13 06:18:55;;;;;;;;;;;;;;;14.95;77.19;101384.03;4961010;28;19925;-80
2023/05/13 06:21:22;;;;;;;;;;;;;;;14.93;76.98;101378.00;4960886;28;19922;-82
2023/05/13 06:23:49;;;;;;;;;;;;;;;14.99;77.15;101382.75;4949643;28;20085;-83
2023/05/13 06:26:18;;;;;;;;;;;;;;;15.04;76.22;101380.50;4952158;28;19957;-80
2023/05/13 06:28:45;;;;;;;;;;;;;;;15.03;75.72;101384.16;4923594;28;20346;-81
2023/05/13 06:31:22;;;;;;;;;;;;;;;15.01;75.37;101388.81;4914561;28;20300;-82
2023/05/13 06:34:03;;;;;;;;;;;;;;;15.04;76.60;101396.53;4917152;28;20272;-81
2023/05/13 06:36:35;;;;;;;;;;;;;;;14.98;76.47;101391.78;4956178;28;20653;-82
2023/05/13 06:39:02;;;;;;;;;;;;;;;15.01;76.48;101396.00;4941618;28;20211;-80
2023/05/13 06:44:39;;;;;;;;;;;;;;;15.08;75.02;101397.94;4960598;28;19925;-82
2023/05/13 06:47:14;;;;;;;;;;;;;;;14.69;75.96;101344.59;4921842;28;20410;-82
2023/05/13 06:49:55;;;;;;;;;;;;;;;14.96;75.46;101369.69;4903462;28;20277;-82
2023/05/13 06:52:40;;;;;;;;;;;;;;;14.73;76.25;101342.47;4881220;28;20291;-81
2023/05/13 06:55:11;;;;;;;;;;;;;;;14.99;76.27;101404.16;4940116;28;19922;-80
2023/05/13 06:57:38;;;;;;;;;;;;;;;15.01;76.65;101396.84;4957654;28;19925;-80
2023/05/13 07:00:09;;;;;;;;;;;;;;;15.07;76.20;101400.75;4956097;28;20209;-81
2023/05/13 07:02:35;;;;;;;;;;;;;;;15.05;76.20;101398.25;4951943;28;20203;-81
2023/05/13 07:05:06;;;;;;;;;;;;;;;14.75;76.75;101364.53;4958007;28;19921;-82
2023/05/13 07:07:36;;;;;;;;;;;;;;;15.11;76.76;101396.81;4960501;28;20189;-82
2023/05/13 07:10:03;;;;;;;;;;;;;;;15.20;76.05;101401.28;4961440;28;20025;-82
2023/05/13 07:12:30;;;;;;;;;;;;;;;15.14;77.10;101402.69;4953651;28;20360;-81
2023/05/13 07:14:59;;;;;;;;;;;;;;;15.18;78.39;101406.75;4954813;28;19934;-83
2023/05/13 07:17:26;;;;;;;;;;;;;;;15.23;78.59;101405.47;4962232;28;19933;-82
2023/05/13 07:19:56;;;;;;;;;;;;;;;15.27;78.07;101404.22;4952705;28;19960;-82
2023/05/13 07:22:29;;;;;;;;;;;;;;;15.37;77.38;101405.00;4964435;28;20164;-83
2023/05/13 07:24:58;;;;;;;;;;;;;;;15.43;77.08;101396.38;4955898;28;20372;-82
2023/05/13 07:27:27;;;;;;;;;;;;;;;15.55;77.33;101395.16;4941072;28;19922;-82
2023/05/13 07:29:57;;;;;;;;;;;;;;;15.63;77.00;101389.06;4963238;28;19973;-81
2023/05/13 07:32:28;;;;;;;;;;;;;;;15.72;77.16;101395.41;4962215;28;20234;-81
2023/05/13 07:34:54;;;;;;;;;;;;;;;15.86;76.37;101402.06;4958572;28;20466;-82
2023/05/13 07:37:22;;;;;;;;;;;;;;;15.90;76.88;101396.28;4958506;28;19921;-80
2023/05/13 07:39:48;;;;;;;;;;;;;;;15.95;76.56;101396.66;4937290;28;19937;-81
2023/05/13 07:42:20;;;;;;;;;;;;;;;15.66;76.10;101347.81;4957117;28;20016;-81
2023/05/13 07:44:51;;;;;;;;;;;;;;;15.89;75.22;101386.53;4958272;28;20406;-81
2023/05/13 07:47:18;;;;;;;;;;;;;;;15.62;75.09;101349.09;4954574;28;19929;-80
2023/05/13 07:49:45;;;;;;;;;;;;;;;15.99;74.90;101384.63;4952591;28;19929;-80
2023/05/13 07:52:11;;;;;;;;;;;;;;;16.06;74.83;101384.03;4952164;28;19992;-81
2023/05/13 07:54:38;;;;;;;;;;;;;;;16.15;75.68;101381.25;4932802;28;19929;-81
2023/05/13 07:57:05;;;;;;;;;;;;;;;16.12;75.00;101381.59;4954211;28;19933;-81
2023/05/13 07:59:32;;;;;;;;;;;;;;;16.25;75.11;101370.47;4956499;28;19922;-78
2023/05/13 08:02:01;;;;;;;;;;;;;;;16.30;75.04;101373.53;4944080;28;20329;-83
2023/05/13 08:04:27;;;;;;;;;;;;;;;16.37;74.58;101379.09;4959912;28;20364;-80
2023/05/13 08:06:56;;;;;;;;;;;;;;;16.53;73.98;101381.91;4952526;28;19922;-82
2023/05/13 08:09:26;;;;;;;;;;;;;;;16.65;75.15;101379.78;4939168;28;20418;-83
2023/05/13 08:11:53;;;;;;;;;;;;;;;16.62;73.81;101375.59;4943765;28;20549;-81
2023/05/13 08:14:21;;;;;;;;;;;;;;;16.80;73.89;101377.44;4939893;28;20446;-82
2023/05/13 08:16:48;;;;;;;;;;;;;;;16.76;73.19;101370.66;4959736;28;20561;-81
2023/05/13 08:19:15;;;;;;;;;;;;;;;16.64;73.78;101380.81;4962565;28;19976;-79
2023/05/13 08:21:42;;;;;;;;;;;;;;;16.67;74.70;101377.81;4956103;28;19937;-83
2023/05/13 08:24:09;;;;;;;;;;;;;;;16.75;74.59;101380.56;4960419;28;19949;-83
2023/05/13 08:26:39;;;;;;;;;;;;;;;16.85;73.91;101378.63;4956193;28;19996;-81
2023/05/13 08:29:06;;;;;;;;;;;;;;;16.85;73.94;101381.31;4960013;28;20177;-83
2023/05/13 08:31:33;;;;;;;;;;;;;;;16.97;73.80;101378.38;4938720;28;19926;-82
2023/05/13 08:34:02;;;;;;;;;;;;;;;17.22;73.26;101374.78;4939747;28;19925;-83
2023/05/13 08:36:28;;;;;;;;;;;;;;;17.19;72.95;101388.53;4941965;28;20012;-83
2023/05/13 08:38:55;;;;;;;;;;;;;;;17.11;73.49;101393.84;4941437;28;20081;-81
2023/05/13 08:41:22;;;;;;;;;;;;;;;17.04;74.02;101393.66;4937480;28;19933;-82
2023/05/13 08:43:50;;;;;;;;;;;;;;;16.80;74.43;101345.25;4940180;28;19925;-83
2023/05/13 08:46:17;;;;;;;;;;;;;;;17.23;74.17;101397.97;4961574;28;19984;-81
2023/05/13 08:48:44;;;;;;;;;;;;;;;17.45;72.90;101398.34;4961155;28;19937;-82
2023/05/13 08:51:11;;;;;;;;;;;;;;;17.57;72.42;101382.78;4964306;28;19933;-82
2023/05/13 08:53:38;;;;;;;;;;;;;;;17.65;71.41;101394.41;4972205;28;19972;-82
2023/05/13 08:56:07;;;;;;;;;;;;;;;17.69;72.76;101398.47;4949053;28;19980;-81
2023/05/13 08:58:33;;;;;;;;;;;;;;;17.78;71.36;101390.41;4948166;28;19964;-82
2023/05/13 09:01:02;;;;;;;;;;;;;;;17.73;71.53;101389.06;4953829;28;19932;-82
2023/05/13 09:03:29;;;;;;;;;;;;;;;17.73;71.77;101396.28;4953277;28;19957;-81
2023/05/13 09:05:58;;;;;;;;;;;;;;;17.71;71.00;101385.69;4960615;28;19948;-80
2023/05/13 09:08:25;;;;;;;;;;;;;;;17.71;70.34;101383.00;4951264;28;19921;-79
2023/05/13 09:10:52;;;;;;;;;;;;;;;17.90;70.38;101379.22;4961144;28;19921;-81
2023/05/13 09:13:20;;;;;;;;;;;;;;;18.08;69.82;101380.91;4967783;28;19922;-81
2023/05/13 09:15:49;;;;;;;;;;;;;;;18.08;69.73;101380.91;4945433;28;20004;-83
2023/05/13 09:18:17;;;;;;;;;;;;;;;18.17;69.55;101384.47;4968180;28;20400;-81
2023/05/13 09:20:45;;;;;;;;;;;;;;;18.30;69.40;101374.03;4965658;28;20017;-80
2023/05/13 09:23:11;;;;;;;;;;;;;;;18.35;68.01;101382.47;4961438;28;20029;-84
2023/05/13 09:25:39;;;;;;;;;;;;;;;18.34;67.36;101381.59;4959405;28;20243;-84
2023/05/13 09:28:06;;;;;;;;;;;;;;;18.37;68.10;101375.03;4963084;28;19929;-80
2023/05/13 09:30:34;;;;;;;;;;;;;;;18.35;67.70;101369.84;4965848;28;19929;-81
2023/05/13 09:33:04;;;;;;;;;;;;;;;18.39;66.39;101367.66;4965536;28;19925;-82
2023/05/13 09:35:31;;;;;;;;;;;;;;;18.51;66.63;101370.84;4969023;28;19932;-81
2023/05/13 09:37:58;;;;;;;;;;;;;;;18.50;66.55;101366.47;4963651;28;20278;-81
2023/05/13 09:40:24;;;;;;;;;;;;;;;18.53;66.14;101364.28;4939986;28;20188;-82
2023/05/13 09:42:55;;;;;;;;;;;;;;;18.75;65.67;101361.88;4960925;28;19926;-81
2023/05/13 09:45:24;;;;;;;;;;;;;;;18.80;63.86;101364.94;4960844;28;20311;-84
2023/05/13 09:47:53;;;;;;;;;;;;;;;18.76;64.90;101364.44;4963057;28;19922;-82
2023/05/13 09:50:20;;;;;;;;;;;;;;;18.88;65.61;101370.28;4963361;28;20179;-82
2023/05/13 09:52:47;;;;;;;;;;;;;;;18.96;64.00;101347.91;4921181;28;19922;-81
2023/05/13 09:55:14;;;;;;;;;;;;;;;18.85;63.96;101361.72;4944193;28;19928;-82
2023/05/13 09:57:41;;;;;;;;;;;;;;;18.98;65.32;101351.25;4965817;28;20125;-81
2023/05/13 10:00:08;;;;;;;;;;;;;;;19.08;63.87;101354.59;4959236;28;20167;-83
2023/05/13 10:02:55;;;;;;;;;;;;;;;19.28;64.11;101343.41;4947411;28;20008;-83
2023/05/13 10:05:30;;;;;;;;;;;;;;;19.37;60.87;101343.19;4947546;28;20501;-80
2023/05/13 10:07:58;;;;;;;;;;;;;;;19.65;61.70;101338.13;4960585;28;19922;-82
2023/05/13 10:10:26;;;;;;;;;;;;;;;19.66;62.50;101333.63;4955417;28;19928;-82
2023/05/13 10:12:52;;;;;;;;;;;;;;;19.60;62.42;101335.16;4960528;28;19933;-82
2023/05/13 10:15:19;;;;;;;;;;;;;;;19.55;60.28;101331.31;4960850;28;20296;-82
2023/05/13 10:17:46;;;;;;;;;;;;;;;19.48;60.29;101324.97;4951820;28;19929;-87
2023/05/13 10:20:13;;;;;;;;;;;;;;;19.38;61.34;101320.63;4966855;28;19926;-80
2023/05/13 10:22:40;;;;;;;;;;;;;;;19.42;62.22;101321.13;4961311;28;19929;-83
2023/05/13 10:25:07;;;;;;;;;;;;;;;19.58;61.90;101326.41;4959833;28;20327;-81
2023/05/13 10:27:38;;;;;;;;;;;;;;;19.50;60.22;101309.47;4921702;28;19926;-83
2023/05/13 10:30:09;;;;;;;;;;;;;;;19.63;60.42;101325.88;4924228;28;20268;-82
2023/05/13 10:32:40;;;;;;;;;;;;;;;19.71;60.84;101317.78;4937746;28;20050;-81
2023/05/13 10:35:12;;;;;;;;;;;;;;;19.72;60.03;101278.22;4926289;28;20207;-84
2023/05/13 10:37:54;;;;;;;;;;;;;;;20.06;57.50;101326.25;4928328;28;20012;-80
2023/05/13 10:40:32;;;;;;;;;;;;;;;20.13;57.80;101315.59;4939491;28;19927;-83
2023/05/13 10:43:11;;;;;;;;;;;;;;;20.35;58.01;101316.59;4922889;28;20212;-83
2023/05/13 10:45:38;;;;;;;;;;;;;;;20.61;58.15;101310.78;4939006;28;20272;-81
2023/05/13 10:48:06;;;;;;;;;;;;;;;20.70;57.07;101315.91;4953852;28;20727;-82
2023/05/13 10:50:35;;;;;;;;;;;;;;;20.68;55.23;101307.16;4940114;28;19922;-81
2023/05/13 10:53:06;;;;;;;;;;;;;;;20.72;56.30;101313.00;4937444;28;19945;-82
2023/05/13 10:55:42;;;;;;;;;;;;;;;20.89;57.54;101302.88;4940644;28;20021;-82
2023/05/13 10:58:09;;;;;;;;;;;;;;;20.81;56.30;101298.41;4957898;28;20001;-82
2023/05/13 11:00:37;;;;;;;;;;;;;;;20.73;55.94;101294.94;4958337;28;19926;-82
2023/05/13 11:03:07;;;;;;;;;;;;;;;20.66;56.77;101289.50;4941926;28;19928;-81
2023/05/13 11:05:37;;;;;;;;;;;;;;;20.57;56.99;101294.13;4954136;28;20740;-82
2023/05/13 11:08:06;;;;;;;;;;;;;;;20.54;56.86;101307.97;4958697;28;20336;-80
2023/05/13 11:10:36;;;;;;;;;;;;;;;20.52;55.76;101304.59;4952085;28;20227;-80
2023/05/13 11:13:15;;;;;;;;;;;;;;;20.67;56.64;101310.03;4957374;28;20211;-82
2023/05/13 11:15:48;;;;;;;;;;;;;;;20.54;55.31;101296.34;4937378;28;19973;-83
2023/05/13 11:18:15;;;;;;;;;;;;;;;20.50;57.03;101282.38;4959646;28;19929;-80
2023/05/13 11:20:52;;;;;;;;;;;;;;;20.48;56.65;101298.72;4964244;28;19933;-79
2023/05/13 11:23:19;;;;;;;;;;;;;;;20.39;56.47;101304.38;4957767;28;20207;-82
2023/05/13 11:26:27;;;;;;;;;;;;;;;20.39;55.89;101307.09;4942585;28;19961;-82
2023/05/13 11:29:04;;;;;;;;;;;;;;;20.59;56.21;101299.34;4886965;29;19923;-82
2023/05/13 11:31:52;;;;;;;;;;;;;;;20.65;56.46;101296.72;4872859;29;19926;-80
2023/05/13 11:34:23;;;;;;;;;;;;;;;20.68;56.94;101304.47;4933899;28;20324;-82
2023/05/13 11:37:10;;;;;;;;;;;;;;;20.73;56.20;101303.03;4954111;28;20280;-81
2023/05/13 11:39:38;;;;;;;;;;;;;;;20.80;55.99;101309.38;4935868;28;20055;-82
2023/05/13 11:42:10;;;;;;;;;;;;;;;20.55;55.98;101306.94;4963143;28;19922;-81
2023/05/13 11:44:45;;;;;;;;;;;;;;;20.43;56.64;101309.22;4958310;28;19948;-83
2023/05/13 11:47:12;;;;;;;;;;;;;;;20.48;58.20;101306.81;4945773;28;19932;-82
2023/05/13 11:49:43;;;;;;;;;;;;;;;20.28;59.52;101305.69;4953957;28;19989;-81
2023/05/13 11:52:10;;;;;;;;;;;;;;;20.17;58.94;101303.41;4941582;28;20328;-80
2023/05/13 11:54:48;;;;;;;;;;;;;;;20.06;58.72;101312.78;4941575;28;19957;-83
2023/05/13 11:57:26;;;;;;;;;;;;;;;19.85;57.95;101310.75;4957871;28;19965;-82
2023/05/13 11:59:54;;;;;;;;;;;;;;;19.76;58.94;101315.38;4937938;28;19928;-82
2023/05/13 12:02:22;;;;;;;;;;;;;;;19.52;60.12;101323.59;4961731;28;19926;-82
2023/05/13 12:04:50;;;;;;;;;;;;;;;19.27;61.33;101318.31;4947872;28;20443;-81
2023/05/13 12:07:23;;;;;;;;;;;;;;;19.35;61.43;101333.63;4961562;28;19965;-80
2023/05/13 12:10:01;;;;;;;;;;;;;;;19.17;61.82;101317.72;4957641;28;19933;-84
2023/05/13 12:12:28;;;;;;;;;;;;;;;18.98;63.06;101329.72;4964553;28;19922;-84
2023/05/13 12:14:58;;;;;;;;;;;;;;;18.88;63.43;101329.94;4941751;28;20012;-82
2023/05/13 12:17:27;;;;;;;;;;;;;;;18.53;63.92;101251.34;4943962;28;20384;-82
2023/05/13 12:20:10;;;;;;;;;;;;;;;19.24;63.41;101329.44;4969412;28;19940;-80
2023/05/13 12:22:51;;;;;;;;;;;;;;;18.95;63.51;101282.50;4947692;28;20412;-82
2023/05/13 12:25:41;;;;;;;;;;;;;;;19.09;64.68;101318.59;4962039;28;19922;-81
2023/05/13 12:28:23;;;;;;;;;;;;;;;18.52;64.57;101236.25;4947530;28;19922;-82
2023/05/13 12:30:53;;;;;;;;;;;;;;;19.00;63.89;101311.56;4939902;28;19922;-77
2023/05/13 12:33:30;;;;;;;;;;;;;;;19.15;62.45;101308.97;4959085;28;20339;-83
2023/05/13 12:36:19;;;;;;;;;;;;;;;19.33;60.43;101306.88;4955866;28;20001;-83
2023/05/13 12:38:55;;;;;;;;;;;;;;;19.43;59.59;101315.56;4947509;28;19929;-80
2023/05/13 12:41:27;;;;;;;;;;;;;;;19.83;59.66;101318.19;4924474;28;20404;-74
2023/05/13 12:43:56;;;;;;;;;;;;;;;20.20;56.72;101319.25;4963485;28;20012;-75
2023/05/13 12:46:23;;;;;;;;;;;;;;;20.45;55.43;101317.97;4963208;28;20012;-79
2023/05/13 12:48:57;;;;;;;;;;;;;;;20.67;53.48;101307.34;4951956;28;19922;-76
2023/05/13 12:51:24;;;;;;;;;;;;;;;21.07;51.50;101300.63;4941848;28;20356;-82